sensor_id;sensor_type;location;lat;lon;timestamp;P1;durP1;ratioP1;P2;durP2;ratioP2
23232;SDS011;11785;49.500;8.288;2022-11-20T00:01:13;38.25;;;18.48;;
23232;SDS011;11785;49.500;8.288;2022-11-20T00:03:40;40.25;;;19.88;;
23232;SDS011;11785;49.500;8.288;2022-11-20T00:06:07;37.65;;;18.70;;
23232;SDS011;11785;49.500;8.288;2022-11-20T00:08:35;38.60;;;19.70;;
23232;SDS011;11785;49.500;8.288;2022-11-20T00:11:08;34.92;;;17.75;;
23232;SDS011;11785;49.500;8.288;2022-11-20T00:13:57;30.60;;;17.08;;
23232;SDS011;11785;49.500;8.288;2022-11-20T00:16:24;37.20;;;18.50;;
23232;SDS011;11785;49.500;8.288;2022-11-20T00:18:51;34.45;;;17.92;;
23232;SDS011;11785;49.500;8.288;2022-11-20T00:21:19;36.70;;;18.90;;
23232;SDS011;11785;49.500;8.288;2022-11-20T00:23:46;37.85;;;18.48;;
23232;SDS011;11785;49.500;8.288;2022-11-20T00:26:15;39.20;;;20.25;;
23232;SDS011;11785;49.500;8.288;2022-11-20T00:28:43;38.38;;;19.58;;
23232;SDS011;11785;49.500;8.288;2022-11-20T00:31:14;39.90;;;19.95;;
23232;SDS011;11785;49.500;8.288;2022-11-20T00:33:40;39.70;;;19.42;;
23232;SDS011;11785;49.500;8.288;2022-11-20T00:36:11;38.15;;;18.73;;
23232;SDS011;11785;49.500;8.288;2022-11-20T00:38:42;36.95;;;19.15;;
23232;SDS011;11785;49.500;8.288;2022-11-20T00:41:09;39.60;;;19.33;;
23232;SDS011;11785;49.500;8.288;2022-11-20T00:43:36;36.70;;;18.92;;
23232;SDS011;11785;49.500;8.288;2022-11-20T00:48:29;35.72;;;18.33;;
23232;SDS011;11785;49.500;8.288;2022-11-20T00:50:55;35.28;;;18.75;;
23232;SDS011;11785;49.500;8.288;2022-11-20T00:53:21;33.03;;;17.58;;
23232;SDS011;11785;49.500;8.288;2022-11-20T00:55:56;34.58;;;16.77;;
23232;SDS011;11785;49.500;8.288;2022-11-20T00:58:30;36.83;;;17.73;;
23232;SDS011;11785;49.500;8.288;2022-11-20T01:01:02;36.45;;;18.77;;
23232;SDS011;11785;49.500;8.288;2022-11-20T01:03:30;34.95;;;18.15;;
23232;SDS011;11785;49.500;8.288;2022-11-20T01:06:03;38.95;;;18.52;;
23232;SDS011;11785;49.500;8.288;2022-11-20T01:08:41;38.33;;;18.20;;
23232;SDS011;11785;49.500;8.288;2022-11-20T01:11:10;37.33;;;18.80;;
23232;SDS011;11785;49.500;8.288;2022-11-20T01:13:37;37.40;;;18.77;;
23232;SDS011;11785;49.500;8.288;2022-11-20T01:16:05;41.10;;;19.83;;
23232;SDS011;11785;49.500;8.288;2022-11-20T01:18:36;40.50;;;19.52;;
23232;SDS011;11785;49.500;8.288;2022-11-20T01:21:07;38.70;;;20.13;;
23232;SDS011;11785;49.500;8.288;2022-11-20T01:23:34;31.77;;;16.83;;
23232;SDS011;11785;49.500;8.288;2022-11-20T01:26:06;33.20;;;17.02;;
23232;SDS011;11785;49.500;8.288;2022-11-20T01:28:33;39.08;;;19.42;;
23232;SDS011;11785;49.500;8.288;2022-11-20T01:30:58;40.20;;;18.98;;
23232;SDS011;11785;49.500;8.288;2022-11-20T01:33:24;36.63;;;17.70;;
23232;SDS011;11785;49.500;8.288;2022-11-20T01:35:50;38.85;;;18.23;;
23232;SDS011;11785;49.500;8.288;2022-11-20T01:38:16;37.03;;;18.75;;
23232;SDS011;11785;49.500;8.288;2022-11-20T01:40:42;37.55;;;18.50;;
23232;SDS011;11785;49.500;8.288;2022-11-20T01:43:17;34.05;;;17.80;;
23232;SDS011;11785;49.500;8.288;2022-11-20T01:48:25;34.72;;;17.90;;
23232;SDS011;11785;49.500;8.288;2022-11-20T01:50:55;38.97;;;18.60;;
23232;SDS011;11785;49.500;8.288;2022-11-20T01:53:23;37.30;;;18.67;;
23232;SDS011;11785;49.500;8.288;2022-11-20T01:55:53;36.60;;;18.30;;
23232;SDS011;11785;49.500;8.288;2022-11-20T01:58:22;36.30;;;18.48;;
23232;SDS011;11785;49.500;8.288;2022-11-20T02:00:57;38.90;;;18.50;;
23232;SDS011;11785;49.500;8.288;2022-11-20T02:03:22;39.42;;;18.98;;
23232;SDS011;11785;49.500;8.288;2022-11-20T02:06:04;42.15;;;19.58;;
23232;SDS011;11785;49.500;8.288;2022-11-20T02:08:35;35.97;;;18.35;;
23232;SDS011;11785;49.500;8.288;2022-11-20T02:11:01;37.60;;;18.23;;
23232;SDS011;11785;49.500;8.288;2022-11-20T02:13:27;38.35;;;18.98;;
23232;SDS011;11785;49.500;8.288;2022-11-20T02:16:12;36.97;;;17.90;;
23232;SDS011;11785;49.500;8.288;2022-11-20T02:18:42;35.10;;;17.80;;
23232;SDS011;11785;49.500;8.288;2022-11-20T02:21:12;38.10;;;18.35;;
23232;SDS011;11785;49.500;8.288;2022-11-20T02:24:17;37.25;;;18.80;;
23232;SDS011;11785;49.500;8.288;2022-11-20T02:26:48;37.72;;;18.52;;
23232;SDS011;11785;49.500;8.288;2022-11-20T02:29:23;37.35;;;17.42;;
23232;SDS011;11785;49.500;8.288;2022-11-20T02:31:51;32.53;;;16.27;;
23232;SDS011;11785;49.500;8.288;2022-11-20T02:34:19;34.03;;;16.98;;
23232;SDS011;11785;49.500;8.288;2022-11-20T02:36:45;33.83;;;16.95;;
23232;SDS011;11785;49.500;8.288;2022-11-20T02:39:12;35.38;;;17.60;;
23232;SDS011;11785;49.500;8.288;2022-11-20T02:41:41;35.92;;;18.10;;
23232;SDS011;11785;49.500;8.288;2022-11-20T02:44:07;31.38;;;16.58;;
23232;SDS011;11785;49.500;8.288;2022-11-20T02:46:33;38.00;;;17.75;;
23232;SDS011;11785;49.500;8.288;2022-11-20T02:48:59;39.03;;;17.77;;
23232;SDS011;11785;49.500;8.288;2022-11-20T02:51:26;38.78;;;18.33;;
23232;SDS011;11785;49.500;8.288;2022-11-20T02:53:52;33.78;;;16.25;;
23232;SDS011;11785;49.500;8.288;2022-11-20T02:56:17;37.42;;;17.33;;
23232;SDS011;11785;49.500;8.288;2022-11-20T02:58:43;31.52;;;16.33;;
23232;SDS011;11785;49.500;8.288;2022-11-20T03:01:08;31.13;;;16.45;;
23232;SDS011;11785;49.500;8.288;2022-11-20T03:03:34;35.22;;;16.45;;
23232;SDS011;11785;49.500;8.288;2022-11-20T03:06:00;31.58;;;16.50;;
23232;SDS011;11785;49.500;8.288;2022-11-20T03:08:25;29.40;;;15.65;;
23232;SDS011;11785;49.500;8.288;2022-11-20T03:10:51;32.03;;;16.52;;
23232;SDS011;11785;49.500;8.288;2022-11-20T03:13:17;36.65;;;17.05;;
23232;SDS011;11785;49.500;8.288;2022-11-20T03:15:42;32.63;;;16.60;;
23232;SDS011;11785;49.500;8.288;2022-11-20T03:18:08;36.67;;;17.15;;
23232;SDS011;11785;49.500;8.288;2022-11-20T03:20:34;33.28;;;17.48;;
23232;SDS011;11785;49.500;8.288;2022-11-20T03:22:59;35.25;;;17.27;;
23232;SDS011;11785;49.500;8.288;2022-11-20T03:25:25;38.00;;;18.00;;
23232;SDS011;11785;49.500;8.288;2022-11-20T03:27:51;39.95;;;17.73;;
23232;SDS011;11785;49.500;8.288;2022-11-20T03:30:17;38.15;;;18.38;;
23232;SDS011;11785;49.500;8.288;2022-11-20T03:32:43;37.40;;;18.83;;
23232;SDS011;11785;49.500;8.288;2022-11-20T03:35:08;36.75;;;18.13;;
23232;SDS011;11785;49.500;8.288;2022-11-20T03:37:34;35.85;;;17.08;;
23232;SDS011;11785;49.500;8.288;2022-11-20T03:40:00;34.72;;;16.02;;
23232;SDS011;11785;49.500;8.288;2022-11-20T03:42:26;36.40;;;17.80;;
23232;SDS011;11785;49.500;8.288;2022-11-20T03:45:10;38.42;;;18.65;;
23232;SDS011;11785;49.500;8.288;2022-11-20T03:47:35;34.30;;;16.70;;
23232;SDS011;11785;49.500;8.288;2022-11-20T03:50:01;31.52;;;16.88;;
23232;SDS011;11785;49.500;8.288;2022-11-20T03:52:27;32.95;;;16.38;;
23232;SDS011;11785;49.500;8.288;2022-11-20T03:54:52;30.27;;;16.05;;
23232;SDS011;11785;49.500;8.288;2022-11-20T03:57:18;30.40;;;16.08;;
23232;SDS011;11785;49.500;8.288;2022-11-20T03:59:43;33.33;;;16.05;;
23232;SDS011;11785;49.500;8.288;2022-11-20T04:02:09;33.45;;;17.05;;
23232;SDS011;11785;49.500;8.288;2022-11-20T04:04:35;32.85;;;17.20;;
23232;SDS011;11785;49.500;8.288;2022-11-20T04:07:00;31.88;;;16.08;;
23232;SDS011;11785;49.500;8.288;2022-11-20T04:09:26;33.08;;;16.75;;
23232;SDS011;11785;49.500;8.288;2022-11-20T04:11:51;31.98;;;15.73;;
23232;SDS011;11785;49.500;8.288;2022-11-20T04:14:17;30.27;;;15.65;;
23232;SDS011;11785;49.500;8.288;2022-11-20T04:16:42;28.98;;;16.17;;
23232;SDS011;11785;49.500;8.288;2022-11-20T04:19:12;29.10;;;15.40;;
23232;SDS011;11785;49.500;8.288;2022-11-20T04:21:39;28.10;;;15.05;;
23232;SDS011;11785;49.500;8.288;2022-11-20T04:24:05;31.30;;;15.00;;
23232;SDS011;11785;49.500;8.288;2022-11-20T04:26:32;29.38;;;15.35;;
23232;SDS011;11785;49.500;8.288;2022-11-20T04:28:58;28.75;;;14.80;;
23232;SDS011;11785;49.500;8.288;2022-11-20T04:31:25;29.58;;;15.50;;
23232;SDS011;11785;49.500;8.288;2022-11-20T04:33:52;27.38;;;13.90;;
23232;SDS011;11785;49.500;8.288;2022-11-20T04:36:27;30.33;;;15.38;;
23232;SDS011;11785;49.500;8.288;2022-11-20T04:38:53;28.60;;;15.18;;
23232;SDS011;11785;49.500;8.288;2022-11-20T04:41:25;28.85;;;15.10;;
23232;SDS011;11785;49.500;8.288;2022-11-20T04:43:53;30.15;;;14.98;;
23232;SDS011;11785;49.500;8.288;2022-11-20T04:46:24;27.83;;;14.63;;
23232;SDS011;11785;49.500;8.288;2022-11-20T04:48:51;30.48;;;14.68;;
23232;SDS011;11785;49.500;8.288;2022-11-20T04:51:17;27.83;;;15.50;;
23232;SDS011;11785;49.500;8.288;2022-11-20T04:53:43;31.25;;;15.57;;
23232;SDS011;11785;49.500;8.288;2022-11-20T04:56:09;28.58;;;15.13;;
23232;SDS011;11785;49.500;8.288;2022-11-20T04:58:36;30.08;;;14.43;;
23232;SDS011;11785;49.500;8.288;2022-11-20T05:03:35;32.17;;;15.77;;
23232;SDS011;11785;49.500;8.288;2022-11-20T05:06:01;32.33;;;15.57;;
23232;SDS011;11785;49.500;8.288;2022-11-20T05:08:28;29.30;;;15.30;;
23232;SDS011;11785;49.500;8.288;2022-11-20T05:10:58;30.08;;;15.30;;
23232;SDS011;11785;49.500;8.288;2022-11-20T05:13:26;28.70;;;14.32;;
23232;SDS011;11785;49.500;8.288;2022-11-20T05:15:51;30.17;;;15.02;;
23232;SDS011;11785;49.500;8.288;2022-11-20T05:18:17;25.77;;;14.23;;
23232;SDS011;11785;49.500;8.288;2022-11-20T05:20:42;26.23;;;14.25;;
23232;SDS011;11785;49.500;8.288;2022-11-20T05:23:08;25.83;;;13.98;;
23232;SDS011;11785;49.500;8.288;2022-11-20T05:25:34;28.27;;;14.45;;
23232;SDS011;11785;49.500;8.288;2022-11-20T05:27:59;27.60;;;15.00;;
23232;SDS011;11785;49.500;8.288;2022-11-20T05:30:25;29.38;;;14.20;;
23232;SDS011;11785;49.500;8.288;2022-11-20T05:32:50;29.73;;;14.30;;
23232;SDS011;11785;49.500;8.288;2022-11-20T05:35:16;25.85;;;13.25;;
23232;SDS011;11785;49.500;8.288;2022-11-20T05:37:41;26.05;;;13.45;;
23232;SDS011;11785;49.500;8.288;2022-11-20T05:40:07;25.17;;;12.73;;
23232;SDS011;11785;49.500;8.288;2022-11-20T05:42:33;25.27;;;13.35;;
23232;SDS011;11785;49.500;8.288;2022-11-20T05:45:01;28.23;;;14.15;;
23232;SDS011;11785;49.500;8.288;2022-11-20T05:47:31;27.42;;;13.52;;
23232;SDS011;11785;49.500;8.288;2022-11-20T05:49:58;27.67;;;14.40;;
23232;SDS011;11785;49.500;8.288;2022-11-20T05:52:24;26.35;;;13.52;;
23232;SDS011;11785;49.500;8.288;2022-11-20T05:54:49;25.88;;;13.63;;
23232;SDS011;11785;49.500;8.288;2022-11-20T05:57:15;27.73;;;14.85;;
23232;SDS011;11785;49.500;8.288;2022-11-20T05:59:41;29.33;;;15.10;;
23232;SDS011;11785;49.500;8.288;2022-11-20T06:02:08;28.38;;;14.68;;
23232;SDS011;11785;49.500;8.288;2022-11-20T06:04:33;31.77;;;14.43;;
23232;SDS011;11785;49.500;8.288;2022-11-20T06:06:59;28.67;;;14.57;;
23232;SDS011;11785;49.500;8.288;2022-11-20T06:09:25;28.52;;;14.38;;
23232;SDS011;11785;49.500;8.288;2022-11-20T06:11:50;29.23;;;14.85;;
23232;SDS011;11785;49.500;8.288;2022-11-20T06:14:16;28.13;;;14.48;;
23232;SDS011;11785;49.500;8.288;2022-11-20T06:16:41;28.58;;;13.98;;
23232;SDS011;11785;49.500;8.288;2022-11-20T06:19:07;29.50;;;14.95;;
23232;SDS011;11785;49.500;8.288;2022-11-20T06:21:32;27.38;;;14.23;;
23232;SDS011;11785;49.500;8.288;2022-11-20T06:23:58;26.25;;;13.25;;
23232;SDS011;11785;49.500;8.288;2022-11-20T06:26:25;24.73;;;12.98;;
23232;SDS011;11785;49.500;8.288;2022-11-20T06:28:52;29.17;;;13.70;;
23232;SDS011;11785;49.500;8.288;2022-11-20T06:31:19;26.17;;;14.10;;
23232;SDS011;11785;49.500;8.288;2022-11-20T06:33:47;29.27;;;14.82;;
23232;SDS011;11785;49.500;8.288;2022-11-20T06:36:14;28.58;;;14.18;;
23232;SDS011;11785;49.500;8.288;2022-11-20T06:38:40;28.80;;;13.82;;
23232;SDS011;11785;49.500;8.288;2022-11-20T06:41:07;27.73;;;13.45;;
23232;SDS011;11785;49.500;8.288;2022-11-20T06:43:36;30.40;;;15.25;;
23232;SDS011;11785;49.500;8.288;2022-11-20T06:46:02;25.42;;;13.00;;
23232;SDS011;11785;49.500;8.288;2022-11-20T06:48:28;29.17;;;13.82;;
23232;SDS011;11785;49.500;8.288;2022-11-20T06:50:55;27.50;;;14.50;;
23232;SDS011;11785;49.500;8.288;2022-11-20T06:53:21;25.95;;;13.32;;
23232;SDS011;11785;49.500;8.288;2022-11-20T06:55:47;26.77;;;13.10;;
23232;SDS011;11785;49.500;8.288;2022-11-20T06:58:14;23.15;;;13.05;;
23232;SDS011;11785;49.500;8.288;2022-11-20T07:00:40;24.60;;;13.48;;
23232;SDS011;11785;49.500;8.288;2022-11-20T07:03:06;23.05;;;12.73;;
23232;SDS011;11785;49.500;8.288;2022-11-20T07:05:33;24.90;;;13.02;;
23232;SDS011;11785;49.500;8.288;2022-11-20T07:08:00;29.63;;;14.63;;
23232;SDS011;11785;49.500;8.288;2022-11-20T07:10:26;25.02;;;13.40;;
23232;SDS011;11785;49.500;8.288;2022-11-20T07:12:52;27.52;;;15.10;;
23232;SDS011;11785;49.500;8.288;2022-11-20T07:15:25;26.23;;;13.88;;
23232;SDS011;11785;49.500;8.288;2022-11-20T07:17:51;29.42;;;15.30;;
23232;SDS011;11785;49.500;8.288;2022-11-20T07:20:17;29.48;;;14.90;;
23232;SDS011;11785;49.500;8.288;2022-11-20T07:22:43;25.98;;;13.65;;
23232;SDS011;11785;49.500;8.288;2022-11-20T07:25:08;26.73;;;12.60;;
23232;SDS011;11785;49.500;8.288;2022-11-20T07:27:35;25.13;;;13.38;;
23232;SDS011;11785;49.500;8.288;2022-11-20T07:30:02;24.17;;;13.38;;
23232;SDS011;11785;49.500;8.288;2022-11-20T07:32:28;25.90;;;13.50;;
23232;SDS011;11785;49.500;8.288;2022-11-20T07:34:54;24.17;;;13.27;;
23232;SDS011;11785;49.500;8.288;2022-11-20T07:37:19;25.10;;;14.13;;
23232;SDS011;11785;49.500;8.288;2022-11-20T07:39:45;27.10;;;15.30;;
23232;SDS011;11785;49.500;8.288;2022-11-20T07:42:11;24.88;;;13.85;;
23232;SDS011;11785;49.500;8.288;2022-11-20T07:47:06;24.20;;;12.85;;
23232;SDS011;11785;49.500;8.288;2022-11-20T07:49:32;22.13;;;12.32;;
23232;SDS011;11785;49.500;8.288;2022-11-20T07:51:58;26.15;;;13.57;;
23232;SDS011;11785;49.500;8.288;2022-11-20T07:54:23;25.10;;;13.50;;
23232;SDS011;11785;49.500;8.288;2022-11-20T07:56:49;25.35;;;13.88;;
23232;SDS011;11785;49.500;8.288;2022-11-20T07:59:15;36.38;;;19.02;;
23232;SDS011;11785;49.500;8.288;2022-11-20T08:01:41;28.33;;;15.27;;
23232;SDS011;11785;49.500;8.288;2022-11-20T08:04:07;30.55;;;16.95;;
23232;SDS011;11785;49.500;8.288;2022-11-20T08:06:34;27.30;;;15.50;;
23232;SDS011;11785;49.500;8.288;2022-11-20T08:09:03;30.20;;;16.00;;
23232;SDS011;11785;49.500;8.288;2022-11-20T08:11:28;30.40;;;16.50;;
23232;SDS011;11785;49.500;8.288;2022-11-20T08:16:38;32.53;;;16.67;;
23232;SDS011;11785;49.500;8.288;2022-11-20T08:19:08;26.58;;;14.68;;
23232;SDS011;11785;49.500;8.288;2022-11-20T08:21:34;30.50;;;16.02;;
23232;SDS011;11785;49.500;8.288;2022-11-20T08:24:00;33.83;;;16.55;;
23232;SDS011;11785;49.500;8.288;2022-11-20T08:26:25;32.00;;;16.05;;
23232;SDS011;11785;49.500;8.288;2022-11-20T08:28:55;27.85;;;16.10;;
23232;SDS011;11785;49.500;8.288;2022-11-20T08:31:21;28.45;;;14.82;;
23232;SDS011;11785;49.500;8.288;2022-11-20T08:33:51;30.20;;;15.00;;
23232;SDS011;11785;49.500;8.288;2022-11-20T08:36:17;28.98;;;15.95;;
23232;SDS011;11785;49.500;8.288;2022-11-20T08:38:47;26.98;;;14.38;;
23232;SDS011;11785;49.500;8.288;2022-11-20T08:41:14;35.97;;;18.35;;
23232;SDS011;11785;49.500;8.288;2022-11-20T08:43:49;32.67;;;17.42;;
23232;SDS011;11785;49.500;8.288;2022-11-20T08:46:15;29.67;;;15.73;;
23232;SDS011;11785;49.500;8.288;2022-11-20T08:48:41;28.85;;;14.88;;
23232;SDS011;11785;49.500;8.288;2022-11-20T08:51:07;24.85;;;13.80;;
23232;SDS011;11785;49.500;8.288;2022-11-20T08:53:33;26.35;;;15.68;;
23232;SDS011;11785;49.500;8.288;2022-11-20T08:55:59;27.77;;;16.10;;
23232;SDS011;11785;49.500;8.288;2022-11-20T08:58:25;26.15;;;14.88;;
23232;SDS011;11785;49.500;8.288;2022-11-20T09:00:51;29.85;;;15.80;;
23232;SDS011;11785;49.500;8.288;2022-11-20T09:03:17;28.52;;;15.23;;
23232;SDS011;11785;49.500;8.288;2022-11-20T09:05:49;28.67;;;15.75;;
23232;SDS011;11785;49.500;8.288;2022-11-20T09:10:43;29.27;;;16.25;;
23232;SDS011;11785;49.500;8.288;2022-11-20T09:13:08;30.08;;;15.15;;
23232;SDS011;11785;49.500;8.288;2022-11-20T09:15:34;29.27;;;15.45;;
23232;SDS011;11785;49.500;8.288;2022-11-20T09:18:00;29.08;;;15.70;;
23232;SDS011;11785;49.500;8.288;2022-11-20T09:20:28;30.25;;;15.60;;
23232;SDS011;11785;49.500;8.288;2022-11-20T09:22:54;28.13;;;14.95;;
23232;SDS011;11785;49.500;8.288;2022-11-20T09:25:21;30.10;;;15.88;;
23232;SDS011;11785;49.500;8.288;2022-11-20T09:27:46;30.67;;;16.15;;
23232;SDS011;11785;49.500;8.288;2022-11-20T09:30:13;31.08;;;16.92;;
23232;SDS011;11785;49.500;8.288;2022-11-20T09:32:39;30.65;;;16.23;;
23232;SDS011;11785;49.500;8.288;2022-11-20T09:35:05;32.75;;;16.75;;
23232;SDS011;11785;49.500;8.288;2022-11-20T09:37:31;33.05;;;16.90;;
23232;SDS011;11785;49.500;8.288;2022-11-20T09:39:57;35.35;;;17.45;;
23232;SDS011;11785;49.500;8.288;2022-11-20T09:42:43;33.13;;;17.48;;
23232;SDS011;11785;49.500;8.288;2022-11-20T09:45:20;34.20;;;17.73;;
23232;SDS011;11785;49.500;8.288;2022-11-20T09:47:58;32.17;;;16.58;;
23232;SDS011;11785;49.500;8.288;2022-11-20T09:50:31;38.92;;;19.63;;
23232;SDS011;11785;49.500;8.288;2022-11-20T09:53:13;39.80;;;19.60;;
23232;SDS011;11785;49.500;8.288;2022-11-20T09:55:57;35.22;;;19.65;;
23232;SDS011;11785;49.500;8.288;2022-11-20T10:01:08;41.83;;;19.98;;
23232;SDS011;11785;49.500;8.288;2022-11-20T10:03:41;46.10;;;22.40;;
23232;SDS011;11785;49.500;8.288;2022-11-20T10:06:10;44.30;;;23.23;;
23232;SDS011;11785;49.500;8.288;2022-11-20T10:08:42;39.50;;;20.48;;
23232;SDS011;11785;49.500;8.288;2022-11-20T10:17:13;31.38;;;17.45;;
23232;SDS011;11785;49.500;8.288;2022-11-20T10:19:44;32.25;;;18.08;;
23232;SDS011;11785;49.500;8.288;2022-11-20T10:31:11;35.13;;;16.95;;
23232;SDS011;11785;49.500;8.288;2022-11-20T10:36:54;34.95;;;16.92;;
23232;SDS011;11785;49.500;8.288;2022-11-20T10:42:19;34.85;;;18.77;;
23232;SDS011;11785;49.500;8.288;2022-11-20T10:45:13;37.75;;;21.50;;
23232;SDS011;11785;49.500;8.288;2022-11-20T10:50:08;31.40;;;16.60;;
23232;SDS011;11785;49.500;8.288;2022-11-20T11:00:20;30.42;;;16.38;;
23232;SDS011;11785;49.500;8.288;2022-11-20T11:02:47;29.05;;;16.48;;
23232;SDS011;11785;49.500;8.288;2022-11-20T11:08:02;28.13;;;14.68;;
23232;SDS011;11785;49.500;8.288;2022-11-20T11:10:32;26.58;;;15.75;;
23232;SDS011;11785;49.500;8.288;2022-11-20T11:13:07;27.25;;;15.52;;
23232;SDS011;11785;49.500;8.288;2022-11-20T11:15:43;27.20;;;15.10;;
23232;SDS011;11785;49.500;8.288;2022-11-20T11:18:10;25.73;;;15.50;;
23232;SDS011;11785;49.500;8.288;2022-11-20T11:20:36;27.15;;;14.93;;
23232;SDS011;11785;49.500;8.288;2022-11-20T11:23:02;26.02;;;14.65;;
23232;SDS011;11785;49.500;8.288;2022-11-20T11:25:30;26.02;;;15.27;;
23232;SDS011;11785;49.500;8.288;2022-11-20T11:28:21;24.75;;;14.95;;
23232;SDS011;11785;49.500;8.288;2022-11-20T11:30:49;28.63;;;15.40;;
23232;SDS011;11785;49.500;8.288;2022-11-20T11:33:19;23.10;;;13.65;;
23232;SDS011;11785;49.500;8.288;2022-11-20T11:35:46;22.27;;;13.90;;
23232;SDS011;11785;49.500;8.288;2022-11-20T11:38:18;24.65;;;14.95;;
23232;SDS011;11785;49.500;8.288;2022-11-20T11:40:47;20.58;;;12.85;;
23232;SDS011;11785;49.500;8.288;2022-11-20T11:43:19;20.77;;;12.15;;
23232;SDS011;11785;49.500;8.288;2022-11-20T11:54:25;20.73;;;12.02;;
23232;SDS011;11785;49.500;8.288;2022-11-20T12:05:16;15.55;;;10.15;;
23232;SDS011;11785;49.500;8.288;2022-11-20T12:10:40;11.18;;;7.68;;
23232;SDS011;11785;49.500;8.288;2022-11-20T12:15:58;13.05;;;8.65;;
23232;SDS011;11785;49.500;8.288;2022-11-20T12:18:24;14.68;;;8.75;;
23232;SDS011;11785;49.500;8.288;2022-11-20T12:23:57;13.15;;;9.30;;
23232;SDS011;11785;49.500;8.288;2022-11-20T12:40:52;11.27;;;6.45;;
23232;SDS011;11785;49.500;8.288;2022-11-20T12:43:59;15.05;;;9.18;;
23232;SDS011;11785;49.500;8.288;2022-11-20T12:46:59;6.97;;;4.20;;
23232;SDS011;11785;49.500;8.288;2022-11-20T12:49:52;10.70;;;4.72;;
23232;SDS011;11785;49.500;8.288;2022-11-20T12:55:22;6.97;;;2.42;;
23232;SDS011;11785;49.500;8.288;2022-11-20T13:00:21;3.35;;;2.00;;
23232;SDS011;11785;49.500;8.288;2022-11-20T13:08:43;3.88;;;2.47;;
23232;SDS011;11785;49.500;8.288;2022-11-20T13:20:12;2.47;;;2.05;;
23232;SDS011;11785;49.500;8.288;2022-11-20T13:25:22;5.43;;;1.95;;
23232;SDS011;11785;49.500;8.288;2022-11-20T13:27:50;3.15;;;2.00;;
23232;SDS011;11785;49.500;8.288;2022-11-20T13:30:17;4.00;;;1.60;;
23232;SDS011;11785;49.500;8.288;2022-11-20T13:32:48;5.70;;;1.98;;
23232;SDS011;11785;49.500;8.288;2022-11-20T13:35:23;8.15;;;3.25;;
23232;SDS011;11785;49.500;8.288;2022-11-20T13:40:35;2.58;;;1.60;;
23232;SDS011;11785;49.500;8.288;2022-11-20T13:46:01;7.50;;;2.55;;
23232;SDS011;11785;49.500;8.288;2022-11-20T13:48:32;7.15;;;2.05;;
23232;SDS011;11785;49.500;8.288;2022-11-20T13:51:14;3.38;;;1.67;;
23232;SDS011;11785;49.500;8.288;2022-11-20T13:56:34;2.78;;;2.22;;
23232;SDS011;11785;49.500;8.288;2022-11-20T13:59:17;6.15;;;1.65;;
23232;SDS011;11785;49.500;8.288;2022-11-20T14:02:08;3.75;;;1.55;;
23232;SDS011;11785;49.500;8.288;2022-11-20T14:04:41;3.03;;;1.35;;
23232;SDS011;11785;49.500;8.288;2022-11-20T14:07:09;3.10;;;1.67;;
23232;SDS011;11785;49.500;8.288;2022-11-20T14:09:35;3.85;;;1.40;;
23232;SDS011;11785;49.500;8.288;2022-11-20T14:12:01;5.75;;;1.40;;
23232;SDS011;11785;49.500;8.288;2022-11-20T14:14:28;2.35;;;1.10;;
23232;SDS011;11785;49.500;8.288;2022-11-20T14:17:05;3.42;;;1.23;;
23232;SDS011;11785;49.500;8.288;2022-11-20T14:19:32;4.53;;;1.00;;
23232;SDS011;11785;49.500;8.288;2022-11-20T14:22:16;1.27;;;0.90;;
23232;SDS011;11785;49.500;8.288;2022-11-20T14:24:43;2.63;;;1.25;;
23232;SDS011;11785;49.500;8.288;2022-11-20T14:27:16;5.90;;;2.20;;
23232;SDS011;11785;49.500;8.288;2022-11-20T14:29:44;3.10;;;1.90;;
23232;SDS011;11785;49.500;8.288;2022-11-20T14:32:12;4.57;;;2.20;;
23232;SDS011;11785;49.500;8.288;2022-11-20T14:34:41;8.27;;;3.67;;
23232;SDS011;11785;49.500;8.288;2022-11-20T14:37:13;16.13;;;6.57;;
23232;SDS011;11785;49.500;8.288;2022-11-20T14:39:49;9.93;;;3.95;;
23232;SDS011;11785;49.500;8.288;2022-11-20T14:42:24;4.82;;;1.90;;
23232;SDS011;11785;49.500;8.288;2022-11-20T14:44:52;10.82;;;4.07;;
23232;SDS011;11785;49.500;8.288;2022-11-20T14:47:21;17.35;;;5.80;;
23232;SDS011;11785;49.500;8.288;2022-11-20T14:49:49;8.88;;;2.92;;
23232;SDS011;11785;49.500;8.288;2022-11-20T14:54:47;6.93;;;2.30;;
23232;SDS011;11785;49.500;8.288;2022-11-20T14:59:46;7.55;;;1.50;;
23232;SDS011;11785;49.500;8.288;2022-11-20T15:02:12;3.05;;;2.05;;
23232;SDS011;11785;49.500;8.288;2022-11-20T15:04:47;2.65;;;1.40;;
23232;SDS011;11785;49.500;8.288;2022-11-20T15:07:22;3.47;;;1.50;;
23232;SDS011;11785;49.500;8.288;2022-11-20T15:10:07;2.60;;;1.13;;
23232;SDS011;11785;49.500;8.288;2022-11-20T15:12:40;6.82;;;1.80;;
23232;SDS011;11785;49.500;8.288;2022-11-20T15:15:15;4.60;;;2.00;;
23232;SDS011;11785;49.500;8.288;2022-11-20T15:17:45;5.18;;;1.48;;
23232;SDS011;11785;49.500;8.288;2022-11-20T15:20:14;4.60;;;1.58;;
23232;SDS011;11785;49.500;8.288;2022-11-20T15:22:41;2.33;;;1.48;;
23232;SDS011;11785;49.500;8.288;2022-11-20T15:25:16;5.47;;;1.45;;
23232;SDS011;11785;49.500;8.288;2022-11-20T15:27:43;3.28;;;1.60;;
23232;SDS011;11785;49.500;8.288;2022-11-20T15:30:17;3.80;;;1.90;;
23232;SDS011;11785;49.500;8.288;2022-11-20T15:32:44;4.53;;;2.17;;
23232;SDS011;11785;49.500;8.288;2022-11-20T15:35:13;7.93;;;2.28;;
23232;SDS011;11785;49.500;8.288;2022-11-20T15:37:40;5.07;;;2.05;;
23232;SDS011;11785;49.500;8.288;2022-11-20T15:40:07;4.70;;;2.22;;
23232;SDS011;11785;49.500;8.288;2022-11-20T15:42:33;6.10;;;2.20;;
23232;SDS011;11785;49.500;8.288;2022-11-20T15:44:59;5.55;;;2.35;;
23232;SDS011;11785;49.500;8.288;2022-11-20T15:47:26;6.20;;;2.22;;
23232;SDS011;11785;49.500;8.288;2022-11-20T15:49:57;5.60;;;2.53;;
23232;SDS011;11785;49.500;8.288;2022-11-20T15:52:23;4.32;;;1.98;;
23232;SDS011;11785;49.500;8.288;2022-11-20T15:54:48;3.63;;;2.20;;
23232;SDS011;11785;49.500;8.288;2022-11-20T15:57:14;8.45;;;2.65;;
23232;SDS011;11785;49.500;8.288;2022-11-20T15:59:40;5.60;;;2.40;;
23232;SDS011;11785;49.500;8.288;2022-11-20T16:02:13;7.72;;;2.47;;
23232;SDS011;11785;49.500;8.288;2022-11-20T16:07:05;3.58;;;1.92;;
23232;SDS011;11785;49.500;8.288;2022-11-20T16:09:31;5.60;;;2.05;;
23232;SDS011;11785;49.500;8.288;2022-11-20T16:11:57;4.93;;;2.28;;
23232;SDS011;11785;49.500;8.288;2022-11-20T16:14:24;2.85;;;1.50;;
23232;SDS011;11785;49.500;8.288;2022-11-20T16:17:08;5.43;;;2.00;;
23232;SDS011;11785;49.500;8.288;2022-11-20T16:19:34;5.20;;;1.67;;
23232;SDS011;11785;49.500;8.288;2022-11-20T16:21:59;5.32;;;1.50;;
23232;SDS011;11785;49.500;8.288;2022-11-20T16:24:26;3.95;;;1.90;;
23232;SDS011;11785;49.500;8.288;2022-11-20T16:26:52;5.43;;;2.63;;
23232;SDS011;11785;49.500;8.288;2022-11-20T16:29:19;8.98;;;4.18;;
23232;SDS011;11785;49.500;8.288;2022-11-20T16:31:44;4.13;;;1.95;;
23232;SDS011;11785;49.500;8.288;2022-11-20T16:34:10;5.00;;;1.77;;
23232;SDS011;11785;49.500;8.288;2022-11-20T16:36:36;1.65;;;1.10;;
23232;SDS011;11785;49.500;8.288;2022-11-20T16:39:06;3.08;;;1.63;;
23232;SDS011;11785;49.500;8.288;2022-11-20T16:41:32;3.70;;;1.20;;
23232;SDS011;11785;49.500;8.288;2022-11-20T16:44:00;5.40;;;1.30;;
23232;SDS011;11785;49.500;8.288;2022-11-20T16:46:27;13.38;;;5.60;;
23232;SDS011;11785;49.500;8.288;2022-11-20T16:48:58;8.13;;;1.85;;